createdAt,value
2019-01-12T00:03:16.522Z,46.4
2019-01-12T00:08:18.558Z,46.4
2019-01-12T00:13:20.632Z,46.3
2019-01-12T00:18:22.694Z,46.3
2019-01-12T00:23:24.759Z,46.2
2019-01-12T00:28:26.788Z,46.2
2019-01-12T00:33:28.814Z,46.1
2019-01-12T00:38:30.878Z,46.1
2019-01-12T00:43:32.951Z,46.1
2019-01-12T00:48:34.986Z,46
2019-01-12T00:53:37.054Z,45.9
2019-01-12T00:58:39.097Z,45.9
2019-01-12T01:03:41.155Z,45.9
2019-01-12T01:08:43.179Z,45.8
2019-01-12T01:13:45.210Z,45.8
2019-01-12T01:18:47.234Z,45.7
2019-01-12T01:23:49.251Z,45.7
2019-01-12T01:28:51.303Z,45.6
2019-01-12T01:33:53.318Z,45.6
2019-01-12T01:38:55.313Z,45.5
2019-01-12T01:43:57.318Z,45.5
2019-01-12T01:48:59.372Z,45.4
2019-01-12T01:54:01.565Z,45.4
2019-01-12T01:59:03.661Z,45.3
2019-01-12T02:04:05.684Z,45.3
2019-01-12T02:09:07.746Z,45.2
2019-01-12T02:14:09.839Z,45.2
2019-01-12T02:19:12.012Z,45.1
2019-01-12T02:24:14.006Z,45.1
2019-01-12T02:29:16.093Z,45
2019-01-12T02:34:18.077Z,45
2019-01-12T02:39:20.026Z,44.9
2019-01-12T02:44:21.960Z,44.9
2019-01-12T02:49:23.887Z,44.8
2019-01-12T02:54:25.810Z,44.7
2019-01-12T02:59:27.775Z,44.7
2019-01-12T03:04:29.702Z,44.7
2019-01-12T03:09:32.321Z,44.6
2019-01-12T03:14:34.289Z,44.6
2019-01-12T03:19:36.224Z,44.5
2019-01-12T03:24:38.226Z,44.5
2019-01-12T03:29:40.221Z,44.4
2019-01-12T03:34:42.201Z,44.4
2019-01-12T03:39:44.175Z,44.3
2019-01-12T03:44:46.171Z,44.3
2019-01-12T03:49:48.165Z,44.2
2019-01-12T03:54:50.177Z,44.2
2019-01-12T03:59:52.173Z,44.1
2019-01-12T04:04:54.058Z,44.1
2019-01-12T04:09:55.954Z,44
2019-01-12T04:14:57.872Z,44
2019-01-12T04:19:59.761Z,43.9
2019-01-12T04:25:01.701Z,43.9
2019-01-12T04:30:07.657Z,43.8
2019-01-12T04:35:09.518Z,43.8
2019-01-12T04:40:11.374Z,43.7
2019-01-12T04:45:13.236Z,43.7
2019-01-12T04:50:15.224Z,43.6
2019-01-12T04:55:17.213Z,43.6
2019-01-12T05:00:18.715Z,43.5
2019-01-12T05:05:20.720Z,43.5
2019-01-12T05:10:22.678Z,43.4
2019-01-12T05:15:24.645Z,43.4
2019-01-12T05:20:26.581Z,43.4
2019-01-12T05:25:28.558Z,43.3
2019-01-12T05:30:30.536Z,43.3
2019-01-12T05:35:32.463Z,43.2
2019-01-12T05:40:34.325Z,43.1
2019-01-12T05:45:36.210Z,43.1
2019-01-12T05:50:38.039Z,43.1
2019-01-12T05:55:39.875Z,43
2019-01-12T06:00:41.802Z,42.9
2019-01-12T06:05:43.658Z,42.9
2019-01-12T06:10:45.536Z,42.9
2019-01-12T06:15:47.442Z,42.8
2019-01-12T06:20:49.381Z,42.7
2019-01-12T06:25:51.339Z,42.7
2019-01-12T06:30:53.299Z,42.7
2019-01-12T06:35:55.273Z,42.6
2019-01-12T06:40:57.239Z,42.6
2019-01-12T06:45:59.198Z,42.6
2019-01-12T06:51:01.120Z,42.5
2019-01-12T06:56:03.027Z,42.4
2019-01-12T07:01:04.947Z,42.4
2019-01-12T07:06:06.866Z,42.4
2019-01-12T07:11:08.747Z,42.3
2019-01-12T07:16:12.851Z,42.3
2019-01-12T07:21:14.801Z,42.2
2019-01-12T07:26:17.579Z,42.2
2019-01-12T07:31:19.782Z,42
2019-01-12T07:36:21.786Z,41.9
2019-01-12T07:41:23.671Z,41.9
2019-01-12T07:46:25.693Z,41.8
2019-01-12T07:51:27.628Z,41.7
2019-01-12T07:56:29.529Z,41.7
2019-01-12T08:01:31.425Z,41.6
2019-01-12T08:06:33.305Z,41.4
2019-01-12T08:11:35.141Z,41.3
2019-01-12T08:16:37.054Z,41.2
2019-01-12T08:21:39.059Z,41.2
2019-01-12T08:26:40.936Z,41.2
2019-01-12T08:31:42.797Z,41.1
2019-01-12T08:36:44.694Z,41.1
2019-01-12T08:41:46.069Z,41.1
2019-01-12T08:46:47.949Z,41
2019-01-12T08:51:49.842Z,40.9
2019-01-12T08:56:51.693Z,40.9
2019-01-12T09:01:53.640Z,40.9
2019-01-12T09:06:55.182Z,40.9
2019-01-12T09:11:57.221Z,40.8
2019-01-12T09:16:59.140Z,40.8
2019-01-12T09:22:01.060Z,40.8
2019-01-12T09:27:02.971Z,40.7
2019-01-12T09:32:04.890Z,40.6
2019-01-12T09:37:06.847Z,40.6
2019-01-12T09:42:09.728Z,40.6
2019-01-12T09:47:13.037Z,40.5
2019-01-12T09:52:15.065Z,40.4
2019-01-12T09:57:16.889Z,40.4
2019-01-12T10:02:21.743Z,40.4
2019-01-12T10:07:26.291Z,40.3
2019-01-12T10:12:28.145Z,40.3
2019-01-12T10:17:30.001Z,40.2
2019-01-12T10:22:31.852Z,40.2
2019-01-12T10:27:33.686Z,40.2
2019-01-12T10:32:39.349Z,40.1
2019-01-12T10:37:41.181Z,40.1
2019-01-12T10:42:47.671Z,40.1
2019-01-12T10:47:49.238Z,40
2019-01-12T10:52:51.080Z,40
2019-01-12T10:57:53.008Z,39.9
2019-01-12T11:02:55.379Z,39.9
2019-01-12T11:07:57.227Z,39.9
2019-01-12T11:13:00.387Z,39.8
2019-01-12T11:18:02.255Z,39.7
2019-01-12T11:23:04.044Z,39.7
2019-01-12T11:28:05.837Z,39.7
2019-01-12T11:33:07.640Z,39.7
2019-01-12T11:38:09.506Z,39.6
2019-01-12T11:43:11.358Z,39.6
2019-01-12T11:48:15.940Z,39.4
2019-01-12T11:53:17.784Z,39.4
2019-01-12T11:58:19.683Z,39.4
2019-01-12T12:03:21.538Z,39.3
2019-01-12T12:08:24.440Z,39.2
2019-01-12T12:13:26.244Z,39.2
2019-01-12T12:18:31.051Z,39.2
2019-01-12T12:23:33.961Z,39.2
2019-01-12T12:28:35.767Z,39.2
2019-01-12T12:33:37.622Z,39.1
2019-01-12T12:38:42.305Z,39.1
2019-01-12T12:43:44.050Z,39.1
2019-01-12T12:48:45.876Z,39
2019-01-12T12:53:47.675Z,38.9
2019-01-12T12:58:50.576Z,38.9
2019-01-12T13:03:52.380Z,38.9
2019-01-12T13:08:54.159Z,38.9
2019-01-12T13:13:56.025Z,38.8
2019-01-12T13:18:57.842Z,38.8
2019-01-12T13:23:59.704Z,38.7
2019-01-12T13:29:01.552Z,38.7
2019-01-12T13:34:03.383Z,38.7
2019-01-12T13:39:05.220Z,38.7
2019-01-12T13:44:07.069Z,38.6
2019-01-12T13:49:08.960Z,38.6
2019-01-12T13:54:13.756Z,38.5
2019-01-12T13:59:15.562Z,38.4
2019-01-12T14:04:17.521Z,38.4
2019-01-12T14:09:19.342Z,38.4
2019-01-12T14:14:21.139Z,38.4
2019-01-12T14:19:22.948Z,38.3
2019-01-12T14:24:24.749Z,38.2
2019-01-12T14:29:26.529Z,38.2
2019-01-12T14:34:28.298Z,38.2
2019-01-12T14:39:30.093Z,38.2
2019-01-12T14:44:31.905Z,38.1
2019-01-12T14:49:33.786Z,38.1
2019-01-12T14:54:35.609Z,38.1
2019-01-12T14:59:37.462Z,38.1
2019-01-12T15:04:39.272Z,38
2019-01-12T15:09:41.064Z,38
2019-01-12T15:14:42.839Z,37.9
2019-01-12T15:19:44.655Z,37.9
2019-01-12T15:24:46.466Z,37.9
2019-01-12T15:29:48.248Z,37.9
2019-01-12T15:34:50.017Z,37.8
2019-01-12T15:39:51.823Z,37.8
2019-01-12T15:44:53.613Z,37.7
2019-01-12T15:49:55.417Z,37.7
2019-01-12T15:54:57.197Z,37.7
2019-01-12T15:59:58.983Z,37.7
2019-01-12T16:05:00.740Z,37.6
2019-01-12T16:10:02.534Z,37.6
2019-01-12T16:15:04.363Z,37.6
2019-01-12T16:20:06.188Z,37.5
2019-01-12T16:25:07.927Z,37.5
2019-01-12T16:30:09.614Z,37.4
2019-01-12T16:35:14.282Z,37.4
2019-01-12T16:40:15.948Z,37.4
2019-01-12T16:45:17.677Z,37.4
2019-01-12T16:50:19.378Z,37.3
2019-01-12T16:55:21.124Z,37.3
2019-01-12T17:00:22.850Z,37.2
2019-01-12T17:05:25.302Z,37.2
2019-01-12T17:10:27.096Z,37.2
2019-01-12T17:15:34.549Z,37.2
2019-01-12T17:20:36.866Z,37.1
2019-01-12T17:25:38.579Z,37.1
2019-01-12T17:30:41.325Z,37.1
2019-01-12T17:35:43.012Z,37.1
2019-01-12T17:40:47.429Z,37
2019-01-12T17:45:49.136Z,37
2019-01-12T17:50:50.852Z,36.9
2019-01-12T17:55:53.544Z,36.9
2019-01-12T18:00:55.227Z,36.9
2019-01-12T18:05:57.011Z,36.9
2019-01-12T18:10:58.789Z,36.9
2019-01-12T18:16:00.521Z,36.8
2019-01-12T18:21:02.235Z,36.8
2019-01-12T18:26:04.143Z,36.7
2019-01-12T18:31:05.886Z,36.7
2019-01-12T18:36:07.673Z,36.7
2019-01-12T18:41:12.369Z,38
2019-01-12T18:46:14.831Z,40.1
2019-01-12T18:51:19.712Z,42.7
2019-01-12T18:56:21.663Z,44.6
2019-01-12T19:01:23.903Z,46.1
2019-01-12T19:06:25.897Z,47.4
2019-01-12T19:11:28.972Z,48.4
2019-01-12T19:16:31.991Z,49.4
2019-01-12T19:21:34.065Z,50.2
2019-01-12T19:26:34.623Z,50.9
2019-01-12T19:31:36.721Z,51.5
2019-01-12T19:36:38.801Z,52
2019-01-12T19:41:39.321Z,52.5
2019-01-12T19:46:42.778Z,52.9
2019-01-12T19:51:45.380Z,53.1
2019-01-12T19:56:46.010Z,53.1
2019-01-12T20:01:47.731Z,53.4
2019-01-12T20:06:49.434Z,53.3
2019-01-12T20:11:49.999Z,53.6
2019-01-12T20:16:54.213Z,53.6
2019-01-12T20:21:56.441Z,53.5
2019-01-12T20:27:01.126Z,53.6
2019-01-12T20:32:01.973Z,53.7
2019-01-12T20:37:03.324Z,53.6
2019-01-12T20:47:09.188Z,54.1
2019-01-12T20:52:09.841Z,54.4
2019-01-12T20:57:10.682Z,54.7
2019-01-12T21:02:11.436Z,54.9
2019-01-12T21:07:12.075Z,54.7
2019-01-12T21:12:12.668Z,54.6
2019-01-12T21:17:13.502Z,54.5
2019-01-12T21:22:17.600Z,54.4
2019-01-12T21:27:18.306Z,54.4
2019-01-12T21:32:18.892Z,54.3
2019-01-12T21:37:22.431Z,54.2
2019-01-12T21:42:23.148Z,54.2
2019-01-12T21:47:27.059Z,54.1
2019-01-12T21:52:27.646Z,54.1
2019-01-12T21:57:29.465Z,54
2019-01-12T22:02:30.016Z,53.9
2019-01-12T22:07:31.812Z,53.9
2019-01-12T22:12:32.824Z,53.9
2019-01-12T22:17:33.392Z,53.8
2019-01-12T22:22:34.998Z,53.7
2019-01-12T22:27:39.457Z,53.7
2019-01-12T22:32:40.073Z,53.6
2019-01-12T22:37:40.686Z,53.6
2019-01-12T22:42:41.351Z,53.4
2019-01-12T22:47:44.440Z,53.4
2019-01-12T22:52:45.091Z,53.3
2019-01-12T22:58:06.529Z,53.3
2019-01-12T23:03:07.161Z,53.2
2019-01-12T23:08:09.910Z,53.1
2019-01-12T23:18:17.320Z,53
2019-01-12T23:23:18.883Z,52.9
2019-01-12T23:28:19.380Z,52.8
2019-01-12T23:33:19.908Z,52.7
2019-01-12T23:38:20.455Z,52.7
2019-01-12T23:43:21.018Z,52.6
2019-01-12T23:48:21.601Z,52.6
2019-01-12T23:53:22.215Z,52.5
2019-01-12T23:58:22.862Z,52.4
